sensor_id;sensor_type;location;lat;lon;timestamp;pressure;altitude;pressure_sealevel;temperature;humidity
47985;BME280;33753;52.912;-7.342;2023-03-19T00:01:17;100382.91;;;1.69;100.00
47985;BME280;33753;52.912;-7.342;2023-03-19T00:03:45;100375.47;;;1.61;100.00
47985;BME280;33753;52.912;-7.342;2023-03-19T00:06:14;100372.56;;;1.53;100.00
47985;BME280;33753;52.912;-7.342;2023-03-19T00:08:43;100372.41;;;1.43;100.00
47985;BME280;33753;52.912;-7.342;2023-03-19T00:11:13;100367.75;;;1.34;100.00
47985;BME280;33753;52.912;-7.342;2023-03-19T00:13:41;100361.16;;;1.27;100.00
47985;BME280;33753;52.912;-7.342;2023-03-19T00:16:10;100365.03;;;1.23;100.00
47985;BME280;33753;52.912;-7.342;2023-03-19T00:18:38;100375.78;;;1.21;100.00
47985;BME280;33753;52.912;-7.342;2023-03-19T00:21:07;100376.66;;;1.22;100.00
47985;BME280;33753;52.912;-7.342;2023-03-19T00:23:37;100373.00;;;1.23;100.00
47985;BME280;33753;52.912;-7.342;2023-03-19T00:26:05;100371.34;;;1.22;100.00
47985;BME280;33753;52.912;-7.342;2023-03-19T00:28:35;100375.19;;;1.17;100.00
47985;BME280;33753;52.912;-7.342;2023-03-19T00:31:08;100372.94;;;1.11;100.00
47985;BME280;33753;52.912;-7.342;2023-03-19T00:33:37;100370.63;;;1.07;100.00
47985;BME280;33753;52.912;-7.342;2023-03-19T00:36:08;100367.84;;;1.08;100.00
47985;BME280;33753;52.912;-7.342;2023-03-19T00:38:37;100378.50;;;1.08;100.00
47985;BME280;33753;52.912;-7.342;2023-03-19T00:41:05;100392.78;;;1.07;100.00
47985;BME280;33753;52.912;-7.342;2023-03-19T00:43:37;100409.00;;;1.04;100.00
47985;BME280;33753;52.912;-7.342;2023-03-19T00:46:05;100418.91;;;1.02;100.00
47985;BME280;33753;52.912;-7.342;2023-03-19T00:48:34;100418.16;;;1.00;100.00
47985;BME280;33753;52.912;-7.342;2023-03-19T00:51:04;100403.28;;;0.97;100.00
47985;BME280;33753;52.912;-7.342;2023-03-19T00:53:36;100409.66;;;0.95;100.00
47985;BME280;33753;52.912;-7.342;2023-03-19T00:56:05;100416.28;;;0.89;100.00
47985;BME280;33753;52.912;-7.342;2023-03-19T00:58:36;100411.31;;;0.84;100.00
47985;BME280;33753;52.912;-7.342;2023-03-19T01:01:07;100404.72;;;0.77;100.00
47985;BME280;33753;52.912;-7.342;2023-03-19T01:03:36;100399.50;;;0.63;100.00
47985;BME280;33753;52.912;-7.342;2023-03-19T01:06:05;100398.91;;;0.46;100.00
47985;BME280;33753;52.912;-7.342;2023-03-19T01:08:33;100402.00;;;0.40;100.00
47985;BME280;33753;52.912;-7.342;2023-03-19T01:11:07;100410.94;;;0.39;100.00
47985;BME280;33753;52.912;-7.342;2023-03-19T01:13:39;100420.81;;;0.37;100.00
47985;BME280;33753;52.912;-7.342;2023-03-19T01:16:08;100404.78;;;0.39;100.00
47985;BME280;33753;52.912;-7.342;2023-03-19T01:18:37;100404.66;;;0.40;100.00
47985;BME280;33753;52.912;-7.342;2023-03-19T01:21:06;100399.75;;;0.34;100.00
47985;BME280;33753;52.912;-7.342;2023-03-19T01:23:43;100400.19;;;0.28;100.00
47985;BME280;33753;52.912;-7.342;2023-03-19T01:26:12;100402.97;;;0.26;100.00
47985;BME280;33753;52.912;-7.342;2023-03-19T01:28:42;100407.44;;;0.26;100.00
47985;BME280;33753;52.912;-7.342;2023-03-19T01:31:11;100397.75;;;0.25;100.00
47985;BME280;33753;52.912;-7.342;2023-03-19T01:33:54;100396.69;;;0.27;100.00
47985;BME280;33753;52.912;-7.342;2023-03-19T01:36:33;100389.88;;;0.23;100.00
47985;BME280;33753;52.912;-7.342;2023-03-19T01:39:04;100381.91;;;0.10;100.00
47985;BME280;33753;52.912;-7.342;2023-03-19T01:41:33;100389.53;;;0.02;100.00
47985;BME280;33753;52.912;-7.342;2023-03-19T01:44:32;100396.47;;;0.05;100.00
47985;BME280;33753;52.912;-7.342;2023-03-19T01:47:27;100394.84;;;0.02;100.00
47985;BME280;33753;52.912;-7.342;2023-03-19T01:50:29;100397.19;;;-0.06;100.00
47985;BME280;33753;52.912;-7.342;2023-03-19T01:53:25;100395.69;;;-0.10;100.00
47985;BME280;33753;52.912;-7.342;2023-03-19T01:56:14;100387.31;;;-0.17;100.00
47985;BME280;33753;52.912;-7.342;2023-03-19T01:58:56;100388.75;;;-0.26;100.00
47985;BME280;33753;52.912;-7.342;2023-03-19T02:01:50;100402.47;;;-0.32;100.00
47985;BME280;33753;52.912;-7.342;2023-03-19T02:04:19;100408.31;;;-0.40;100.00
47985;BME280;33753;52.912;-7.342;2023-03-19T02:06:48;100408.41;;;-0.41;100.00
47985;BME280;33753;52.912;-7.342;2023-03-19T02:09:17;100404.88;;;-0.42;100.00
47985;BME280;33753;52.912;-7.342;2023-03-19T02:11:47;100411.66;;;-0.50;100.00
47985;BME280;33753;52.912;-7.342;2023-03-19T02:14:15;100411.50;;;-0.62;100.00
47985;BME280;33753;52.912;-7.342;2023-03-19T02:16:46;100422.34;;;-0.65;100.00
47985;BME280;33753;52.912;-7.342;2023-03-19T02:19:17;100418.06;;;-0.67;100.00
47985;BME280;33753;52.912;-7.342;2023-03-19T02:21:47;100419.31;;;-0.73;100.00
47985;BME280;33753;52.912;-7.342;2023-03-19T02:24:21;100408.50;;;-0.70;100.00
47985;BME280;33753;52.912;-7.342;2023-03-19T02:27:02;100400.22;;;-0.78;100.00
47985;BME280;33753;52.912;-7.342;2023-03-19T02:29:30;100408.44;;;-0.83;100.00
47985;BME280;33753;52.912;-7.342;2023-03-19T02:32:00;100413.97;;;-0.86;100.00
47985;BME280;33753;52.912;-7.342;2023-03-19T02:34:37;100420.16;;;-0.85;100.00
47985;BME280;33753;52.912;-7.342;2023-03-19T02:37:11;100413.53;;;-0.93;100.00
47985;BME280;33753;52.912;-7.342;2023-03-19T02:39:45;100416.34;;;-0.96;100.00
47985;BME280;33753;52.912;-7.342;2023-03-19T02:42:18;100423.59;;;-0.98;100.00
47985;BME280;33753;52.912;-7.342;2023-03-19T02:44:49;100423.69;;;-0.99;100.00
47985;BME280;33753;52.912;-7.342;2023-03-19T02:47:18;100413.72;;;-1.10;100.00
47985;BME280;33753;52.912;-7.342;2023-03-19T02:49:46;100397.84;;;-1.25;100.00
47985;BME280;33753;52.912;-7.342;2023-03-19T02:52:15;100401.47;;;-1.26;100.00
47985;BME280;33753;52.912;-7.342;2023-03-19T02:54:43;100405.69;;;-1.23;100.00
47985;BME280;33753;52.912;-7.342;2023-03-19T02:57:12;100392.06;;;-1.17;100.00
47985;BME280;33753;52.912;-7.342;2023-03-19T02:59:42;100402.28;;;-1.11;100.00
47985;BME280;33753;52.912;-7.342;2023-03-19T03:02:11;100393.28;;;-1.08;100.00
47985;BME280;33753;52.912;-7.342;2023-03-19T03:04:40;100383.06;;;-1.14;100.00
47985;BME280;33753;52.912;-7.342;2023-03-19T03:07:08;100384.94;;;-1.16;100.00
47985;BME280;33753;52.912;-7.342;2023-03-19T03:09:37;100396.97;;;-1.11;100.00
47985;BME280;33753;52.912;-7.342;2023-03-19T03:12:06;100407.28;;;-1.06;100.00
47985;BME280;33753;52.912;-7.342;2023-03-19T03:14:35;100409.00;;;-1.05;100.00
47985;BME280;33753;52.912;-7.342;2023-03-19T03:17:06;100404.72;;;-1.08;100.00
47985;BME280;33753;52.912;-7.342;2023-03-19T03:19:34;100406.94;;;-1.14;100.00
47985;BME280;33753;52.912;-7.342;2023-03-19T03:22:03;100411.28;;;-1.13;100.00
47985;BME280;33753;52.912;-7.342;2023-03-19T03:24:32;100423.59;;;-1.12;100.00
47985;BME280;33753;52.912;-7.342;2023-03-19T03:27:01;100421.91;;;-1.13;100.00
47985;BME280;33753;52.912;-7.342;2023-03-19T03:29:29;100420.00;;;-1.11;100.00
47985;BME280;33753;52.912;-7.342;2023-03-19T03:31:58;100424.25;;;-1.09;100.00
47985;BME280;33753;52.912;-7.342;2023-03-19T03:34:28;100427.00;;;-1.10;100.00
47985;BME280;33753;52.912;-7.342;2023-03-19T03:36:57;100434.97;;;-1.10;100.00
47985;BME280;33753;52.912;-7.342;2023-03-19T03:39:25;100427.88;;;-1.10;100.00
47985;BME280;33753;52.912;-7.342;2023-03-19T03:41:54;100427.59;;;-1.19;100.00
47985;BME280;33753;52.912;-7.342;2023-03-19T03:44:23;100431.97;;;-1.18;100.00
47985;BME280;33753;52.912;-7.342;2023-03-19T03:46:52;100429.41;;;-1.20;100.00
47985;BME280;33753;52.912;-7.342;2023-03-19T03:49:21;100428.34;;;-1.17;100.00
47985;BME280;33753;52.912;-7.342;2023-03-19T03:51:51;100429.84;;;-1.13;100.00
47985;BME280;33753;52.912;-7.342;2023-03-19T03:54:19;100431.97;;;-1.18;100.00
47985;BME280;33753;52.912;-7.342;2023-03-19T03:56:48;100434.63;;;-1.18;100.00
47985;BME280;33753;52.912;-7.342;2023-03-19T03:59:17;100439.94;;;-1.18;100.00
47985;BME280;33753;52.912;-7.342;2023-03-19T04:01:46;100436.88;;;-1.12;100.00
47985;BME280;33753;52.912;-7.342;2023-03-19T04:04:15;100440.28;;;-1.10;100.00
47985;BME280;33753;52.912;-7.342;2023-03-19T04:06:43;100437.63;;;-1.10;100.00
47985;BME280;33753;52.912;-7.342;2023-03-19T04:09:21;100437.63;;;-1.10;100.00
47985;BME280;33753;52.912;-7.342;2023-03-19T04:11:50;100435.94;;;-1.11;100.00
47985;BME280;33753;52.912;-7.342;2023-03-19T04:14:18;100440.56;;;-1.15;100.00
47985;BME280;33753;52.912;-7.342;2023-03-19T04:16:47;100428.25;;;-1.16;100.00
47985;BME280;33753;52.912;-7.342;2023-03-19T04:19:16;100439.25;;;-1.22;100.00
47985;BME280;33753;52.912;-7.342;2023-03-19T04:21:45;100440.41;;;-1.26;100.00
47985;BME280;33753;52.912;-7.342;2023-03-19T04:24:14;100440.28;;;-1.25;100.00
47985;BME280;33753;52.912;-7.342;2023-03-19T04:26:44;100435.19;;;-1.28;100.00
47985;BME280;33753;52.912;-7.342;2023-03-19T04:29:16;100432.16;;;-1.36;100.00
47985;BME280;33753;52.912;-7.342;2023-03-19T04:31:45;100444.47;;;-1.35;100.00
47985;BME280;33753;52.912;-7.342;2023-03-19T04:34:13;100447.03;;;-1.33;100.00
47985;BME280;33753;52.912;-7.342;2023-03-19T04:36:43;100440.88;;;-1.34;100.00
47985;BME280;33753;52.912;-7.342;2023-03-19T04:39:12;100444.47;;;-1.35;100.00
47985;BME280;33753;52.912;-7.342;2023-03-19T04:41:40;100442.75;;;-1.36;100.00
47985;BME280;33753;52.912;-7.342;2023-03-19T04:44:26;100437.00;;;-1.43;100.00
47985;BME280;33753;52.912;-7.342;2023-03-19T04:46:55;100438.78;;;-1.43;100.00
47985;BME280;33753;52.912;-7.342;2023-03-19T04:49:24;100448.47;;;-1.42;100.00
47985;BME280;33753;52.912;-7.342;2023-03-19T04:51:55;100451.97;;;-1.42;100.00
47985;BME280;33753;52.912;-7.342;2023-03-19T04:54:23;100448.25;;;-1.39;100.00
47985;BME280;33753;52.912;-7.342;2023-03-19T04:56:52;100455.28;;;-1.38;100.00
47985;BME280;33753;52.912;-7.342;2023-03-19T04:59:23;100448.16;;;-1.37;100.00
47985;BME280;33753;52.912;-7.342;2023-03-19T05:01:54;100447.13;;;-1.35;100.00
47985;BME280;33753;52.912;-7.342;2023-03-19T05:04:23;100453.22;;;-1.33;100.00
47985;BME280;33753;52.912;-7.342;2023-03-19T05:06:59;100446.19;;;-1.34;100.00
47985;BME280;33753;52.912;-7.342;2023-03-19T05:09:28;100452.34;;;-1.33;100.00
47985;BME280;33753;52.912;-7.342;2023-03-19T05:11:58;100443.44;;;-1.32;100.00
47985;BME280;33753;52.912;-7.342;2023-03-19T05:14:30;100439.75;;;-1.30;100.00
47985;BME280;33753;52.912;-7.342;2023-03-19T05:17:05;100438.63;;;-1.26;100.00
47985;BME280;33753;52.912;-7.342;2023-03-19T05:19:47;100436.69;;;-1.24;100.00
47985;BME280;33753;52.912;-7.342;2023-03-19T05:22:18;100448.06;;;-1.22;100.00
47985;BME280;33753;52.912;-7.342;2023-03-19T05:24:47;100448.84;;;-1.19;100.00
47985;BME280;33753;52.912;-7.342;2023-03-19T05:27:15;100453.94;;;-1.16;100.00
47985;BME280;33753;52.912;-7.342;2023-03-19T05:30:13;100454.78;;;-1.16;100.00
47985;BME280;33753;52.912;-7.342;2023-03-19T05:33:02;100460.78;;;-1.12;100.00
47985;BME280;33753;52.912;-7.342;2023-03-19T05:35:38;100466.06;;;-1.12;100.00
47985;BME280;33753;52.912;-7.342;2023-03-19T05:38:15;100468.72;;;-1.12;100.00
47985;BME280;33753;52.912;-7.342;2023-03-19T05:40:51;100471.38;;;-1.12;100.00
47985;BME280;33753;52.912;-7.342;2023-03-19T05:43:29;100476.50;;;-1.09;100.00
47985;BME280;33753;52.912;-7.342;2023-03-19T05:46:06;100482.59;;;-1.07;100.00
47985;BME280;33753;52.912;-7.342;2023-03-19T05:48:37;100483.31;;;-1.05;100.00
47985;BME280;33753;52.912;-7.342;2023-03-19T05:51:07;100490.34;;;-1.04;100.00
47985;BME280;33753;52.912;-7.342;2023-03-19T05:53:40;100485.78;;;-1.02;100.00
47985;BME280;33753;52.912;-7.342;2023-03-19T05:56:43;100491.09;;;-1.02;100.00
47985;BME280;33753;52.912;-7.342;2023-03-19T05:59:23;100504.38;;;-1.02;100.00
47985;BME280;33753;52.912;-7.342;2023-03-19T06:02:04;100490.16;;;-1.01;100.00
47985;BME280;33753;52.912;-7.342;2023-03-19T06:04:34;100499.06;;;-1.02;100.00
47985;BME280;33753;52.912;-7.342;2023-03-19T06:07:03;100503.53;;;-1.02;100.00
47985;BME280;33753;52.912;-7.342;2023-03-19T06:09:34;100486.72;;;-1.03;100.00
47985;BME280;33753;52.912;-7.342;2023-03-19T06:12:04;100495.66;;;-1.04;100.00
47985;BME280;33753;52.912;-7.342;2023-03-19T06:14:58;100506.63;;;-1.10;100.00
47985;BME280;33753;52.912;-7.342;2023-03-19T06:17:47;100512.16;;;-1.13;100.00
47985;BME280;33753;52.912;-7.342;2023-03-19T06:20:18;100508.75;;;-1.15;100.00
47985;BME280;33753;52.912;-7.342;2023-03-19T06:22:50;100512.53;;;-1.19;100.00
47985;BME280;33753;52.912;-7.342;2023-03-19T06:25:21;100519.91;;;-1.25;100.00
47985;BME280;33753;52.912;-7.342;2023-03-19T06:27:50;100507.63;;;-1.26;100.00
47985;BME280;33753;52.912;-7.342;2023-03-19T06:30:29;100514.16;;;-1.31;100.00
47985;BME280;33753;52.912;-7.342;2023-03-19T06:33:01;100519.63;;;-1.34;100.00
47985;BME280;33753;52.912;-7.342;2023-03-19T06:35:32;100513.38;;;-1.33;100.00
47985;BME280;33753;52.912;-7.342;2023-03-19T06:38:01;100510.91;;;-1.36;100.00
47985;BME280;33753;52.912;-7.342;2023-03-19T06:40:30;100506.44;;;-1.36;100.00
47985;BME280;33753;52.912;-7.342;2023-03-19T06:42:59;100495.00;;;-1.36;100.00
47985;BME280;33753;52.912;-7.342;2023-03-19T06:45:28;100507.41;;;-1.37;100.00
47985;BME280;33753;52.912;-7.342;2023-03-19T06:47:56;100513.56;;;-1.36;100.00
47985;BME280;33753;52.912;-7.342;2023-03-19T06:50:25;100513.28;;;-1.32;100.00
47985;BME280;33753;52.912;-7.342;2023-03-19T06:52:56;100513.09;;;-1.29;100.00
47985;BME280;33753;52.912;-7.342;2023-03-19T06:55:24;100512.91;;;-1.26;100.00
47985;BME280;33753;52.912;-7.342;2023-03-19T06:57:53;100503.78;;;-1.22;100.00
47985;BME280;33753;52.912;-7.342;2023-03-19T07:00:22;100509.88;;;-1.19;100.00
47985;BME280;33753;52.912;-7.342;2023-03-19T07:02:51;100509.59;;;-1.15;100.00
47985;BME280;33753;52.912;-7.342;2023-03-19T07:05:20;100503.88;;;-1.09;100.00
47985;BME280;33753;52.912;-7.342;2023-03-19T07:07:48;100513.28;;;-1.03;100.00
47985;BME280;33753;52.912;-7.342;2023-03-19T07:10:19;100518.97;;;-0.95;100.00
47985;BME280;33753;52.912;-7.342;2023-03-19T07:12:48;100510.63;;;-0.89;100.00
47985;BME280;33753;52.912;-7.342;2023-03-19T07:15:16;100504.91;;;-0.82;100.00
47985;BME280;33753;52.912;-7.342;2023-03-19T07:17:47;100515.16;;;-0.76;100.00
47985;BME280;33753;52.912;-7.342;2023-03-19T07:20:16;100519.88;;;-0.67;100.00
47985;BME280;33753;52.912;-7.342;2023-03-19T07:22:44;100518.44;;;-0.58;100.00
47985;BME280;33753;52.912;-7.342;2023-03-19T07:25:13;100513.41;;;-0.48;100.00
47985;BME280;33753;52.912;-7.342;2023-03-19T07:27:43;100521.59;;;-0.39;100.00
47985;BME280;33753;52.912;-7.342;2023-03-19T07:30:13;100522.72;;;-0.28;100.00
47985;BME280;33753;52.912;-7.342;2023-03-19T07:32:41;100525.63;;;-0.19;100.00
47985;BME280;33753;52.912;-7.342;2023-03-19T07:35:10;100516.94;;;-0.08;100.00
47985;BME280;33753;52.912;-7.342;2023-03-19T07:37:40;100533.03;;;0.04;100.00
47985;BME280;33753;52.912;-7.342;2023-03-19T07:40:10;100539.34;;;0.15;100.00
47985;BME280;33753;52.912;-7.342;2023-03-19T07:42:38;100534.03;;;0.28;100.00
47985;BME280;33753;52.912;-7.342;2023-03-19T07:45:12;100542.81;;;0.43;100.00
47985;BME280;33753;52.912;-7.342;2023-03-19T07:47:40;100551.75;;;0.55;100.00
47985;BME280;33753;52.912;-7.342;2023-03-19T07:50:10;100556.25;;;0.67;100.00
47985;BME280;33753;52.912;-7.342;2023-03-19T07:52:38;100545.81;;;0.77;100.00
47985;BME280;33753;52.912;-7.342;2023-03-19T07:55:08;100544.97;;;0.90;100.00
47985;BME280;33753;52.912;-7.342;2023-03-19T07:57:37;100548.47;;;1.03;100.00
47985;BME280;33753;52.912;-7.342;2023-03-19T08:00:07;100545.88;;;1.14;100.00
47985;BME280;33753;52.912;-7.342;2023-03-19T08:02:40;100544.91;;;1.28;100.00
47985;BME280;33753;52.912;-7.342;2023-03-19T08:05:10;100536.78;;;1.43;100.00
47985;BME280;33753;52.912;-7.342;2023-03-19T08:07:39;100539.41;;;1.55;100.00
47985;BME280;33753;52.912;-7.342;2023-03-19T08:10:09;100545.09;;;1.75;100.00
47985;BME280;33753;52.912;-7.342;2023-03-19T08:12:38;100540.78;;;2.10;100.00
47985;BME280;33753;52.912;-7.342;2023-03-19T08:15:09;100536.44;;;2.55;100.00
47985;BME280;33753;52.912;-7.342;2023-03-19T08:17:38;100536.63;;;3.10;100.00
47985;BME280;33753;52.912;-7.342;2023-03-19T08:20:11;100544.25;;;3.60;100.00
47985;BME280;33753;52.912;-7.342;2023-03-19T08:22:40;100549.72;;;4.03;100.00
47985;BME280;33753;52.912;-7.342;2023-03-19T08:25:09;100555.59;;;4.29;100.00
47985;BME280;33753;52.912;-7.342;2023-03-19T08:27:37;100559.53;;;4.67;100.00
47985;BME280;33753;52.912;-7.342;2023-03-19T08:30:09;100560.16;;;5.01;100.00
47985;BME280;33753;52.912;-7.342;2023-03-19T08:32:37;100563.56;;;5.34;100.00
47985;BME280;33753;52.912;-7.342;2023-03-19T08:35:09;100564.00;;;5.80;100.00
47985;BME280;33753;52.912;-7.342;2023-03-19T08:37:37;100558.13;;;6.26;100.00
47985;BME280;33753;52.912;-7.342;2023-03-19T08:40:07;100545.22;;;6.68;100.00
47985;BME280;33753;52.912;-7.342;2023-03-19T08:42:36;100553.47;;;7.04;100.00
47985;BME280;33753;52.912;-7.342;2023-03-19T08:45:12;100541.81;;;7.23;100.00
47985;BME280;33753;52.912;-7.342;2023-03-19T08:47:42;100523.13;;;7.22;100.00
47985;BME280;33753;52.912;-7.342;2023-03-19T08:50:12;100503.59;;;7.20;100.00
47985;BME280;33753;52.912;-7.342;2023-03-19T08:52:42;100501.91;;;7.19;100.00
47985;BME280;33753;52.912;-7.342;2023-03-19T08:55:11;100484.69;;;7.12;100.00
47985;BME280;33753;52.912;-7.342;2023-03-19T08:57:40;100467.38;;;7.14;100.00
47985;BME280;33753;52.912;-7.342;2023-03-19T09:00:10;100469.50;;;7.38;100.00
47985;BME280;33753;52.912;-7.342;2023-03-19T09:02:39;100479.06;;;7.51;100.00
47985;BME280;33753;52.912;-7.342;2023-03-19T09:05:08;100484.03;;;7.73;100.00
47985;BME280;33753;52.912;-7.342;2023-03-19T09:07:38;100484.19;;;7.90;100.00
47985;BME280;33753;52.912;-7.342;2023-03-19T09:10:07;100477.41;;;7.86;100.00
47985;BME280;33753;52.912;-7.342;2023-03-19T09:12:36;100463.88;;;8.13;100.00
47985;BME280;33753;52.912;-7.342;2023-03-19T09:15:05;100474.41;;;8.25;100.00
47985;BME280;33753;52.912;-7.342;2023-03-19T09:17:34;100488.94;;;8.32;100.00
47985;BME280;33753;52.912;-7.342;2023-03-19T09:20:04;100487.88;;;8.25;100.00
47985;BME280;33753;52.912;-7.342;2023-03-19T09:22:35;100476.78;;;8.10;100.00
47985;BME280;33753;52.912;-7.342;2023-03-19T09:25:06;100476.34;;;8.15;100.00
47985;BME280;33753;52.912;-7.342;2023-03-19T09:27:35;100460.47;;;8.11;100.00
47985;BME280;33753;52.912;-7.342;2023-03-19T09:30:04;100456.50;;;7.98;100.00
47985;BME280;33753;52.912;-7.342;2023-03-19T09:32:35;100459.88;;;8.00;100.00
47985;BME280;33753;52.912;-7.342;2023-03-19T09:35:05;100449.13;;;7.82;100.00
47985;BME280;33753;52.912;-7.342;2023-03-19T09:37:34;100450.25;;;7.79;100.00
47985;BME280;33753;52.912;-7.342;2023-03-19T09:40:03;100457.19;;;7.64;100.00
47985;BME280;33753;52.912;-7.342;2023-03-19T09:42:44;100452.31;;;7.67;100.00
47985;BME280;33753;52.912;-7.342;2023-03-19T09:45:18;100461.09;;;7.69;100.00
47985;BME280;33753;52.912;-7.342;2023-03-19T09:47:50;100455.22;;;7.56;100.00
47985;BME280;33753;52.912;-7.342;2023-03-19T09:50:23;100447.94;;;7.66;100.00
47985;BME280;33753;52.912;-7.342;2023-03-19T09:53:00;100461.22;;;7.50;100.00
47985;BME280;33753;52.912;-7.342;2023-03-19T09:55:35;100456.63;;;7.60;100.00
47985;BME280;33753;52.912;-7.342;2023-03-19T09:58:12;100455.31;;;7.64;100.00
47985;BME280;33753;52.912;-7.342;2023-03-19T10:00:43;100457.41;;;7.70;100.00
47985;BME280;33753;52.912;-7.342;2023-03-19T10:03:28;100451.16;;;7.70;100.00
47985;BME280;33753;52.912;-7.342;2023-03-19T10:06:10;100446.44;;;7.82;100.00
47985;BME280;33753;52.912;-7.342;2023-03-19T10:08:59;100444.88;;;7.79;100.00
47985;BME280;33753;52.912;-7.342;2023-03-19T10:11:36;100434.03;;;7.89;100.00
47985;BME280;33753;52.912;-7.342;2023-03-19T10:14:26;100447.31;;;8.08;100.00
47985;BME280;33753;52.912;-7.342;2023-03-19T10:17:02;100429.84;;;8.12;100.00
47985;BME280;33753;52.912;-7.342;2023-03-19T10:19:39;100432.69;;;8.11;100.00
47985;BME280;33753;52.912;-7.342;2023-03-19T10:22:14;100422.75;;;8.11;100.00
47985;BME280;33753;52.912;-7.342;2023-03-19T10:24:47;100434.59;;;8.19;100.00
47985;BME280;33753;52.912;-7.342;2023-03-19T10:27:19;100429.34;;;8.35;100.00
47985;BME280;33753;52.912;-7.342;2023-03-19T10:29:50;100429.50;;;8.52;100.00
47985;BME280;33753;52.912;-7.342;2023-03-19T10:32:24;100426.78;;;8.52;100.00
47985;BME280;33753;52.912;-7.342;2023-03-19T10:34:56;100417.69;;;8.53;100.00
47985;BME280;33753;52.912;-7.342;2023-03-19T10:37:28;100419.16;;;8.47;100.00
47985;BME280;33753;52.912;-7.342;2023-03-19T10:39:57;100422.72;;;8.47;100.00
47985;BME280;33753;52.912;-7.342;2023-03-19T10:42:48;100411.63;;;8.33;100.00
47985;BME280;33753;52.912;-7.342;2023-03-19T10:45:25;100421.19;;;8.45;100.00
47985;BME280;33753;52.912;-7.342;2023-03-19T10:47:55;100421.44;;;8.60;100.00
47985;BME280;33753;52.912;-7.342;2023-03-19T10:50:28;100419.09;;;8.65;100.00
47985;BME280;33753;52.912;-7.342;2023-03-19T10:53:06;100431.00;;;8.89;100.00
47985;BME280;33753;52.912;-7.342;2023-03-19T10:55:52;100423.72;;;9.15;100.00
47985;BME280;33753;52.912;-7.342;2023-03-19T10:58:25;100416.84;;;9.29;100.00
47985;BME280;33753;52.912;-7.342;2023-03-19T11:00:58;100406.56;;;9.41;100.00
47985;BME280;33753;52.912;-7.342;2023-03-19T11:03:31;100398.63;;;9.31;100.00
47985;BME280;33753;52.912;-7.342;2023-03-19T11:06:06;100398.53;;;9.58;100.00
47985;BME280;33753;52.912;-7.342;2023-03-19T11:08:49;100395.78;;;9.41;100.00
47985;BME280;33753;52.912;-7.342;2023-03-19T11:11:25;100381.63;;;9.39;100.00
47985;BME280;33753;52.912;-7.342;2023-03-19T11:13:54;100368.63;;;9.51;100.00
47985;BME280;33753;52.912;-7.342;2023-03-19T11:16:24;100361.72;;;9.65;100.00
47985;BME280;33753;52.912;-7.342;2023-03-19T11:18:53;100371.50;;;9.74;100.00
47985;BME280;33753;52.912;-7.342;2023-03-19T11:21:26;100354.28;;;9.50;100.00
47985;BME280;33753;52.912;-7.342;2023-03-19T11:24:00;100363.41;;;9.74;100.00
47985;BME280;33753;52.912;-7.342;2023-03-19T11:26:29;100362.06;;;9.78;100.00
47985;BME280;33753;52.912;-7.342;2023-03-19T11:29:02;100366.78;;;9.93;100.00
47985;BME280;33753;52.912;-7.342;2023-03-19T11:31:37;100351.94;;;9.80;100.00
47985;BME280;33753;52.912;-7.342;2023-03-19T11:34:19;100364.09;;;10.09;100.00
47985;BME280;33753;52.912;-7.342;2023-03-19T11:36:56;100354.28;;;10.08;100.00
47985;BME280;33753;52.912;-7.342;2023-03-19T11:39:37;100351.59;;;9.92;100.00
47985;BME280;33753;52.912;-7.342;2023-03-19T11:42:24;100347.19;;;9.82;100.00
47985;BME280;33753;52.912;-7.342;2023-03-19T11:45:03;100343.84;;;9.80;100.00
47985;BME280;33753;52.912;-7.342;2023-03-19T11:47:47;100337.75;;;9.62;100.00
47985;BME280;33753;52.912;-7.342;2023-03-19T11:50:24;100336.22;;;9.43;100.00
47985;BME280;33753;52.912;-7.342;2023-03-19T11:53:07;100339.09;;;9.49;100.00
47985;BME280;33753;52.912;-7.342;2023-03-19T11:55:40;100340.59;;;9.19;100.00
47985;BME280;33753;52.912;-7.342;2023-03-19T11:58:28;100335.44;;;8.91;100.00
47985;BME280;33753;52.912;-7.342;2023-03-19T12:01:04;100333.19;;;8.78;100.00
47985;BME280;33753;52.912;-7.342;2023-03-19T12:04:10;100321.91;;;8.40;100.00
47985;BME280;33753;52.912;-7.342;2023-03-19T12:06:49;100332.53;;;8.42;100.00
47985;BME280;33753;52.912;-7.342;2023-03-19T12:09:25;100334.06;;;8.44;100.00
47985;BME280;33753;52.912;-7.342;2023-03-19T12:12:05;100344.25;;;8.33;100.00
47985;BME280;33753;52.912;-7.342;2023-03-19T12:14:44;100334.22;;;8.17;100.00
47985;BME280;33753;52.912;-7.342;2023-03-19T12:17:28;100340.16;;;8.20;100.00
47985;BME280;33753;52.912;-7.342;2023-03-19T12:20:16;100346.69;;;8.18;100.00
47985;BME280;33753;52.912;-7.342;2023-03-19T12:22:59;100352.53;;;8.13;100.00
47985;BME280;33753;52.912;-7.342;2023-03-19T12:25:57;100351.34;;;8.07;100.00
47985;BME280;33753;52.912;-7.342;2023-03-19T12:28:33;100344.59;;;8.03;100.00
47985;BME280;33753;52.912;-7.342;2023-03-19T12:31:23;100355.41;;;8.11;100.00
47985;BME280;33753;52.912;-7.342;2023-03-19T12:34:06;100357.91;;;8.05;100.00
47985;BME280;33753;52.912;-7.342;2023-03-19T12:36:48;100358.72;;;8.05;100.00
47985;BME280;33753;52.912;-7.342;2023-03-19T12:39:20;100351.13;;;8.01;100.00
47985;BME280;33753;52.912;-7.342;2023-03-19T12:41:51;100351.81;;;8.03;100.00
47985;BME280;33753;52.912;-7.342;2023-03-19T12:44:25;100347.91;;;7.97;100.00
47985;BME280;33753;52.912;-7.342;2023-03-19T12:47:01;100350.75;;;7.95;100.00
47985;BME280;33753;52.912;-7.342;2023-03-19T12:49:32;100351.09;;;7.74;100.00
47985;BME280;33753;52.912;-7.342;2023-03-19T12:52:10;100348.34;;;7.66;100.00
47985;BME280;33753;52.912;-7.342;2023-03-19T12:54:44;100354.47;;;7.58;100.00
47985;BME280;33753;52.912;-7.342;2023-03-19T12:57:18;100349.97;;;7.59;100.00
47985;BME280;33753;52.912;-7.342;2023-03-19T12:59:54;100342.72;;;7.41;100.00
47985;BME280;33753;52.912;-7.342;2023-03-19T13:02:29;100338.13;;;7.34;100.00
47985;BME280;33753;52.912;-7.342;2023-03-19T13:05:08;100334.50;;;7.25;100.00